createdAt,value
2022-12-18T00:02:18.516Z,25.35
2022-12-18T00:07:17.248Z,26.57
2022-12-18T00:09:47.718Z,31.00
2022-12-18T00:14:52.958Z,24.50
2022-12-18T00:17:22.375Z,24.73
2022-12-18T00:19:51.945Z,24.90
2022-12-18T00:22:21.273Z,25.17
2022-12-18T00:24:50.697Z,23.90
2022-12-18T00:27:21.242Z,24.13
2022-12-18T00:29:51.340Z,26.27
2022-12-18T00:32:20.640Z,18.55
2022-12-18T00:34:50.027Z,21.95
2022-12-18T00:37:20.346Z,18.48
2022-12-18T00:39:53.917Z,18.73
2022-12-18T00:42:42.098Z,17.63
2022-12-18T00:45:13.107Z,19.07
2022-12-18T00:47:42.892Z,20.00
2022-12-18T00:50:12.698Z,17.30
2022-12-18T00:52:41.903Z,14.80
2022-12-18T00:55:11.849Z,14.77
2022-12-18T00:57:42.803Z,16.17
2022-12-18T01:00:15.984Z,14.77
2022-12-18T01:02:45.635Z,15.57
2022-12-18T01:05:16.512Z,17.75
2022-12-18T01:07:45.754Z,15.20
2022-12-18T01:10:15.717Z,14.05
2022-12-18T01:12:47.075Z,17.98
2022-12-18T01:15:17.407Z,15.67
2022-12-18T01:17:46.573Z,13.75
2022-12-18T01:20:16.759Z,16.23
2022-12-18T01:22:46.035Z,17.80
2022-12-18T01:25:15.423Z,15.35
2022-12-18T01:27:47.548Z,19.53
2022-12-18T01:30:17.144Z,19.80
2022-12-18T01:32:46.471Z,18.23
2022-12-18T01:35:15.909Z,19.23
2022-12-18T01:37:45.081Z,18.80
2022-12-18T01:40:15.072Z,15.25
2022-12-18T01:42:44.224Z,15.85
2022-12-18T01:45:30.612Z,17.73
2022-12-18T01:48:02.671Z,17.63
2022-12-18T01:50:35.047Z,18.33
2022-12-18T01:53:08.634Z,18.97
2022-12-18T01:55:44.782Z,16.53
2022-12-18T01:58:15.714Z,16.63
2022-12-18T02:03:16.448Z,14.57
2022-12-18T02:05:51.588Z,16.43
2022-12-18T02:08:26.626Z,18.13
2022-12-18T02:11:07.120Z,19.33
2022-12-18T02:13:46.073Z,18.43
2022-12-18T02:16:23.893Z,16.60
2022-12-18T02:19:08.898Z,17.83
2022-12-18T02:22:05.944Z,17.53
2022-12-18T02:24:43.467Z,17.23
2022-12-18T02:27:15.398Z,19.30
2022-12-18T02:29:56.029Z,20.80
2022-12-18T02:32:29.761Z,18.70
2022-12-18T02:35:00.601Z,18.33
2022-12-18T02:37:33.635Z,18.67
2022-12-18T02:40:07.479Z,16.43
2022-12-18T02:42:40.755Z,16.83
2022-12-18T02:45:12.470Z,17.30
2022-12-18T02:47:45.557Z,21.20
2022-12-18T02:50:24.771Z,20.90
2022-12-18T02:53:08.649Z,19.43
2022-12-18T02:55:55.844Z,16.70
2022-12-18T02:58:34.211Z,16.33
2022-12-18T03:01:16.231Z,17.67
2022-12-18T03:03:52.264Z,17.27
2022-12-18T03:06:27.559Z,18.57
2022-12-18T03:09:01.649Z,19.77
2022-12-18T03:11:52.742Z,18.87
2022-12-18T03:14:26.368Z,18.57
2022-12-18T03:17:00.292Z,19.30
2022-12-18T03:19:34.036Z,19.87
2022-12-18T03:22:08.167Z,20.07
2022-12-18T03:24:48.600Z,17.10
2022-12-18T03:27:20.877Z,16.33
2022-12-18T03:33:56.130Z,14.90
2022-12-18T03:36:32.635Z,15.10
2022-12-18T03:39:02.067Z,15.10
2022-12-18T03:41:35.821Z,14.37
2022-12-18T03:44:34.604Z,13.67
2022-12-18T03:47:10.089Z,14.07
2022-12-18T03:49:47.221Z,13.23
2022-12-18T03:52:26.295Z,10.33
2022-12-18T03:54:59.438Z,14.07
2022-12-18T03:57:33.141Z,14.83
2022-12-18T04:00:06.703Z,13.67
2022-12-18T04:02:48.308Z,14.70
2022-12-18T04:05:28.339Z,13.67
2022-12-18T04:07:59.509Z,11.43
2022-12-18T04:10:30.025Z,7.20
2022-12-18T04:13:01.194Z,11.40
2022-12-18T04:15:31.426Z,10.47
2022-12-18T04:18:03.262Z,9.53
2022-12-18T04:20:39.514Z,10.07
2022-12-18T04:23:09.074Z,10.63
2022-12-18T04:25:39.441Z,10.43
2022-12-18T04:28:13.136Z,10.47
2022-12-18T04:30:42.638Z,10.43
2022-12-18T04:33:15.701Z,9.70
2022-12-18T04:35:45.456Z,11.03
2022-12-18T04:38:15.998Z,11.63
2022-12-18T04:40:45.630Z,10.65
2022-12-18T04:43:23.908Z,12.30
2022-12-18T04:45:53.202Z,11.38
2022-12-18T04:48:24.219Z,10.57
2022-12-18T04:50:53.477Z,10.70
2022-12-18T04:53:22.908Z,10.02
2022-12-18T04:55:52.257Z,10.73
2022-12-18T04:58:21.907Z,8.90
2022-12-18T05:00:51.057Z,9.60
2022-12-18T05:03:22.073Z,11.88
2022-12-18T05:05:53.131Z,10.53
2022-12-18T05:08:22.865Z,10.47
2022-12-18T05:10:52.149Z,11.32
2022-12-18T05:13:21.659Z,11.48
2022-12-18T05:15:54.991Z,9.90
2022-12-18T05:18:26.562Z,10.70
2022-12-18T05:20:56.499Z,9.67
2022-12-18T05:23:27.201Z,10.90
2022-12-18T05:25:58.106Z,11.30
2022-12-18T05:28:29.065Z,10.10
2022-12-18T05:31:01.045Z,8.53
2022-12-18T05:33:33.734Z,11.03
2022-12-18T05:36:08.713Z,9.73
2022-12-18T05:38:40.265Z,11.03
2022-12-18T05:41:09.862Z,10.23
2022-12-18T05:46:13.491Z,8.17
2022-12-18T05:48:44.873Z,10.73
2022-12-18T05:51:15.652Z,10.67
2022-12-18T05:53:46.243Z,9.83
2022-12-18T05:58:46.165Z,9.57
2022-12-18T06:01:17.112Z,9.88
2022-12-18T06:03:48.289Z,10.53
2022-12-18T06:06:19.959Z,9.60
2022-12-18T06:08:52.224Z,10.10
2022-12-18T06:11:23.891Z,9.63
2022-12-18T06:13:58.224Z,11.27
2022-12-18T06:16:28.570Z,10.13
2022-12-18T06:19:01.102Z,9.63
2022-12-18T06:21:31.941Z,9.77
2022-12-18T06:24:02.902Z,8.93
2022-12-18T06:29:01.278Z,9.93
2022-12-18T06:31:30.484Z,9.23
2022-12-18T06:34:01.696Z,9.15
2022-12-18T06:36:31.479Z,10.57
2022-12-18T06:39:01.119Z,11.48
2022-12-18T06:41:30.246Z,10.13
2022-12-18T06:44:00.784Z,9.15
2022-12-18T06:46:30.136Z,9.73
2022-12-18T06:49:01.009Z,10.85
2022-12-18T06:51:30.268Z,12.10
2022-12-18T06:53:59.742Z,10.20
2022-12-18T06:56:29.157Z,10.48
2022-12-18T06:58:58.832Z,10.48
2022-12-18T07:01:28.057Z,9.77
2022-12-18T07:03:58.922Z,12.05
2022-12-18T07:06:29.734Z,12.10
2022-12-18T07:08:59.173Z,12.17
2022-12-18T07:11:28.422Z,11.55
2022-12-18T07:13:57.889Z,9.80
2022-12-18T07:18:59.510Z,11.20
2022-12-18T07:21:30.233Z,12.38
2022-12-18T07:24:00.302Z,11.43
2022-12-18T07:26:29.454Z,10.77
2022-12-18T07:28:59.860Z,13.18
2022-12-18T07:33:59.358Z,12.93
2022-12-18T07:36:30.187Z,12.23
2022-12-18T07:38:59.908Z,14.43
2022-12-18T07:41:29.039Z,14.25
2022-12-18T07:43:58.609Z,10.57
2022-12-18T07:46:27.831Z,11.02
2022-12-18T07:48:58.681Z,10.50
2022-12-18T07:51:27.831Z,10.98
2022-12-18T07:53:59.850Z,12.35
2022-12-18T07:56:31.249Z,11.53
2022-12-18T07:59:04.190Z,11.30
2022-12-18T08:01:33.578Z,9.83
2022-12-18T08:04:03.172Z,12.52
2022-12-18T08:06:32.665Z,12.18
2022-12-18T08:09:03.657Z,12.00
2022-12-18T08:11:33.101Z,11.10
2022-12-18T08:14:02.557Z,11.80
2022-12-18T08:16:32.184Z,12.68
2022-12-18T08:21:32.729Z,10.57
2022-12-18T08:24:04.909Z,11.27
2022-12-18T08:26:34.265Z,12.37
2022-12-18T08:29:03.751Z,10.48
2022-12-18T08:31:34.042Z,11.80
2022-12-18T08:34:03.531Z,11.93
2022-12-18T08:36:32.803Z,12.55
2022-12-18T08:39:03.884Z,12.00
2022-12-18T08:41:33.411Z,11.17
2022-12-18T08:44:20.639Z,11.97
2022-12-18T08:46:49.955Z,12.43
2022-12-18T08:49:19.372Z,11.15
2022-12-18T08:51:48.759Z,11.65
2022-12-18T08:54:19.526Z,12.40
2022-12-18T08:56:48.802Z,10.87
2022-12-18T08:59:20.168Z,11.77
2022-12-18T09:01:50.701Z,11.30
2022-12-18T09:04:20.722Z,11.30
2022-12-18T09:06:50.025Z,9.85
2022-12-18T09:09:21.065Z,15.00
2022-12-18T09:11:50.296Z,11.87
2022-12-18T09:14:20.092Z,9.52
2022-12-18T09:16:49.352Z,12.88
2022-12-18T09:19:18.756Z,12.57
2022-12-18T09:21:48.580Z,13.45
2022-12-18T09:24:20.292Z,13.57
2022-12-18T09:26:51.570Z,13.13
2022-12-18T09:29:25.188Z,13.33
2022-12-18T09:31:54.740Z,12.23
2022-12-18T09:34:24.163Z,10.57
2022-12-18T09:36:53.515Z,10.90
2022-12-18T09:39:24.522Z,9.23
2022-12-18T09:41:57.126Z,11.03
2022-12-18T09:44:30.104Z,9.70
2022-12-18T09:47:14.499Z,13.07
2022-12-18T09:49:47.504Z,10.77
2022-12-18T09:52:21.812Z,10.03
2022-12-18T09:54:57.374Z,13.23
2022-12-18T09:57:28.068Z,15.50
2022-12-18T10:00:01.495Z,13.77
2022-12-18T10:02:40.936Z,11.75
2022-12-18T10:07:54.367Z,14.23
2022-12-18T10:13:10.541Z,12.03
2022-12-18T10:15:49.164Z,13.68
2022-12-18T10:18:32.324Z,12.10
2022-12-18T10:21:11.840Z,11.70
2022-12-18T10:23:49.975Z,14.57
2022-12-18T10:26:21.793Z,11.97
2022-12-18T10:28:53.338Z,13.30
2022-12-18T10:31:25.485Z,13.02
2022-12-18T10:33:56.614Z,14.48
2022-12-18T10:36:27.492Z,11.13
2022-12-18T10:39:10.019Z,8.55
2022-12-18T10:41:41.261Z,8.30
2022-12-18T10:44:18.442Z,11.50
2022-12-18T10:46:50.212Z,6.97
2022-12-18T10:49:25.263Z,11.82
2022-12-18T10:52:06.653Z,9.77
2022-12-18T10:54:37.602Z,13.73
2022-12-18T10:57:36.010Z,13.20
2022-12-18T11:00:28.905Z,8.02
2022-12-18T11:03:00.336Z,10.90
2022-12-18T11:05:32.786Z,10.57
2022-12-18T11:08:03.316Z,12.63
2022-12-18T11:10:35.764Z,10.65
2022-12-18T11:13:22.612Z,10.90
2022-12-18T11:15:52.846Z,11.82
2022-12-18T11:18:28.289Z,10.98
2022-12-18T11:21:00.634Z,10.88
2022-12-18T11:23:30.666Z,8.52
2022-12-18T11:26:03.250Z,12.30
2022-12-18T11:28:42.040Z,10.82
2022-12-18T11:31:25.450Z,12.63
2022-12-18T11:36:53.286Z,6.20
2022-12-18T11:42:12.429Z,10.30
2022-12-18T11:44:49.688Z,9.60
2022-12-18T11:47:27.958Z,8.43
2022-12-18T11:50:02.231Z,6.80
2022-12-18T11:52:40.559Z,8.02
2022-12-18T11:55:16.186Z,10.48
2022-12-18T11:57:57.389Z,10.93
2022-12-18T12:00:28.993Z,11.32
2022-12-18T12:03:27.919Z,10.13
2022-12-18T12:06:09.100Z,6.53
2022-12-18T12:08:55.183Z,10.05
2022-12-18T12:11:35.744Z,7.15
2022-12-18T12:14:31.224Z,9.75
2022-12-18T12:17:13.385Z,11.38
2022-12-18T12:19:50.404Z,11.65
2022-12-18T12:22:30.293Z,10.90
2022-12-18T12:25:21.164Z,9.77
2022-12-18T12:28:02.328Z,10.05
2022-12-18T12:30:40.178Z,9.48
2022-12-18T12:33:24.448Z,9.57
2022-12-18T12:36:03.156Z,6.20
2022-12-18T12:38:37.748Z,6.40
2022-12-18T12:41:30.733Z,9.48
2022-12-18T12:44:02.959Z,9.82
2022-12-18T12:46:37.657Z,11.80
2022-12-18T12:49:16.655Z,8.13
2022-12-18T12:51:50.677Z,8.75
2022-12-18T12:54:24.665Z,8.50
2022-12-18T12:57:00.124Z,11.90
2022-12-18T12:59:39.758Z,12.40
2022-12-18T13:02:22.454Z,12.48
2022-12-18T13:05:03.339Z,9.98
2022-12-18T13:07:41.096Z,11.40
2022-12-18T13:10:28.080Z,10.95
2022-12-18T13:12:58.806Z,13.43
2022-12-18T13:15:33.783Z,12.43
2022-12-18T13:18:21.910Z,12.75
2022-12-18T13:21:04.500Z,12.07
2022-12-18T13:23:39.125Z,10.70
2022-12-18T13:26:39.039Z,13.32
2022-12-18T13:29:08.906Z,12.00
2022-12-18T13:32:24.456Z,11.52
2022-12-18T13:35:27.907Z,9.57
2022-12-18T13:37:59.011Z,13.05
2022-12-18T13:40:58.408Z,13.82
2022-12-18T13:43:39.018Z,12.82
2022-12-18T13:46:21.914Z,12.20
2022-12-18T13:49:03.933Z,10.65
2022-12-18T13:51:37.252Z,11.15
2022-12-18T13:54:20.841Z,12.50
2022-12-18T13:56:51.797Z,11.77
2022-12-18T13:59:24.766Z,11.60
2022-12-18T14:01:57.694Z,12.18
2022-12-18T14:04:30.869Z,12.45
2022-12-18T14:07:05.024Z,12.07
2022-12-18T14:09:40.555Z,10.63
2022-12-18T14:12:34.224Z,14.55
2022-12-18T14:15:04.909Z,13.10
2022-12-18T14:17:38.485Z,11.73
2022-12-18T14:20:16.641Z,15.18
2022-12-18T14:22:48.185Z,13.30
2022-12-18T14:25:21.952Z,13.65
2022-12-18T14:27:54.521Z,13.73
2022-12-18T14:30:30.111Z,13.43
2022-12-18T14:33:07.789Z,13.73
2022-12-18T14:35:40.563Z,13.90
2022-12-18T14:38:22.415Z,11.63
2022-12-18T14:40:58.523Z,14.65
2022-12-18T14:43:28.674Z,12.05
2022-12-18T14:45:59.759Z,13.43
2022-12-18T14:48:38.816Z,15.30
2022-12-18T14:51:18.334Z,15.23
2022-12-18T14:53:54.282Z,14.93
2022-12-18T14:56:29.192Z,18.25
2022-12-18T14:59:01.206Z,20.05
2022-12-18T15:01:34.522Z,18.02
2022-12-18T15:04:05.615Z,16.85
2022-12-18T15:06:38.514Z,17.87
2022-12-18T15:09:23.457Z,19.95
2022-12-18T15:11:59.744Z,17.37
2022-12-18T15:14:42.206Z,19.27
2022-12-18T15:17:20.140Z,18.63
2022-12-18T15:19:51.138Z,18.00
2022-12-18T15:22:27.774Z,16.80
2022-12-18T15:24:58.147Z,17.03
2022-12-18T15:27:36.572Z,17.93
2022-12-18T15:30:20.384Z,16.93
2022-12-18T15:32:51.031Z,15.13
2022-12-18T15:35:23.036Z,18.50
2022-12-18T15:37:55.118Z,19.30
2022-12-18T15:40:26.036Z,18.60
2022-12-18T15:43:15.581Z,18.43
2022-12-18T15:45:44.878Z,23.08
2022-12-18T15:48:23.209Z,25.83
2022-12-18T15:50:57.878Z,25.42
2022-12-18T15:53:31.757Z,24.93
2022-12-18T15:56:18.594Z,23.70
2022-12-18T15:58:49.915Z,21.43
2022-12-18T16:01:22.777Z,20.87
2022-12-18T16:03:52.674Z,21.60
2022-12-18T16:06:21.811Z,26.20
2022-12-18T16:08:51.465Z,28.63
2022-12-18T16:11:39.243Z,26.92
2022-12-18T16:14:20.457Z,28.50
2022-12-18T16:16:51.433Z,29.37
2022-12-18T16:19:22.189Z,33.83
2022-12-18T16:21:53.044Z,34.30
2022-12-18T16:24:24.227Z,28.60
2022-12-18T16:26:54.195Z,29.53
2022-12-18T16:29:28.095Z,28.20
2022-12-18T16:31:58.138Z,25.50
2022-12-18T16:34:29.780Z,27.60
2022-12-18T16:37:05.631Z,24.27
2022-12-18T16:39:37.379Z,25.43
2022-12-18T16:42:09.161Z,26.60
2022-12-18T16:44:40.286Z,28.00
2022-12-18T16:47:11.061Z,25.27
2022-12-18T16:49:43.753Z,28.10
2022-12-18T16:52:13.146Z,24.98
2022-12-18T16:54:42.884Z,24.20
2022-12-18T16:57:15.300Z,22.13
2022-12-18T16:59:46.763Z,24.13
2022-12-18T17:02:19.100Z,19.87
2022-12-18T17:04:54.680Z,21.63
2022-12-18T17:07:25.007Z,23.77
2022-12-18T17:09:55.544Z,20.90
2022-12-18T17:12:25.146Z,20.88
2022-12-18T17:14:55.981Z,19.95
2022-12-18T17:17:25.933Z,18.63
2022-12-18T17:19:55.349Z,19.25
2022-12-18T17:22:24.662Z,19.25
2022-12-18T17:24:54.020Z,19.30
2022-12-18T17:27:23.443Z,21.45
2022-12-18T17:29:52.601Z,20.40
2022-12-18T17:32:23.447Z,21.33
2022-12-18T17:34:52.726Z,19.47
2022-12-18T17:37:22.405Z,22.35
2022-12-18T17:39:51.746Z,23.45
2022-12-18T17:42:21.319Z,22.90
2022-12-18T17:44:50.621Z,24.63
2022-12-18T17:47:20.182Z,29.30
2022-12-18T17:49:52.253Z,26.17
2022-12-18T17:52:23.419Z,26.50
2022-12-18T17:54:52.798Z,24.05
2022-12-18T17:57:22.455Z,24.13
2022-12-18T17:59:54.501Z,27.80
2022-12-18T18:02:25.158Z,18.10
2022-12-18T18:04:56.444Z,21.77
2022-12-18T18:07:26.027Z,15.07
2022-12-18T18:10:49.872Z,12.55
2022-12-18T18:14:51.228Z,20.83
2022-12-18T18:17:23.295Z,24.47
2022-12-18T18:20:47.447Z,20.33
2022-12-18T18:23:23.217Z,10.83
2022-12-18T18:25:52.799Z,19.00
2022-12-18T18:28:23.095Z,18.10
2022-12-18T18:30:52.371Z,16.63
2022-12-18T18:33:22.185Z,20.15
2022-12-18T18:35:54.813Z,21.70
2022-12-18T18:38:26.240Z,21.13
2022-12-18T18:41:00.482Z,24.93
2022-12-18T18:43:30.998Z,16.60
2022-12-18T18:46:01.814Z,15.33
2022-12-18T18:48:35.658Z,21.83
2022-12-18T18:51:09.396Z,22.20
2022-12-18T18:53:45.004Z,22.07
2022-12-18T18:56:50.141Z,21.97
2022-12-18T18:59:07.059Z,23.50
2022-12-18T19:01:36.647Z,23.10
2022-12-18T19:04:07.936Z,17.17
2022-12-18T19:06:37.380Z,25.60
2022-12-18T19:09:09.136Z,22.00
2022-12-18T19:11:57.074Z,27.27
2022-12-18T19:14:26.899Z,30.30
2022-12-18T19:16:56.155Z,19.58
2022-12-18T19:21:56.442Z,21.87
2022-12-18T19:24:27.601Z,16.08
2022-12-18T19:26:58.117Z,23.67
2022-12-18T19:29:27.897Z,25.60
2022-12-18T19:31:57.046Z,22.00
2022-12-18T19:34:26.896Z,21.92
2022-12-18T19:36:59.955Z,23.08
2022-12-18T19:39:31.415Z,24.27
2022-12-18T19:42:00.700Z,24.33
2022-12-18T19:44:30.153Z,25.30
2022-12-18T19:46:59.528Z,26.65
2022-12-18T19:49:28.950Z,17.73
2022-12-18T19:51:58.584Z,23.25
2022-12-18T19:54:28.225Z,23.88
2022-12-18T19:56:58.900Z,23.17
2022-12-18T19:59:28.535Z,22.13
2022-12-18T20:01:57.889Z,25.58
2022-12-18T20:04:27.561Z,23.08
2022-12-18T20:06:57.676Z,24.80
2022-12-18T20:09:27.287Z,22.30
2022-12-18T20:11:57.937Z,28.38
2022-12-18T20:14:27.711Z,24.83
2022-12-18T20:16:57.839Z,24.08
2022-12-18T20:19:30.026Z,25.10
2022-12-18T20:21:59.345Z,24.80
2022-12-18T20:24:28.887Z,21.90
2022-12-18T20:26:59.885Z,26.27
2022-12-18T20:29:29.446Z,25.10
2022-12-18T20:31:58.696Z,23.10
2022-12-18T20:34:28.187Z,25.88
2022-12-18T20:36:57.620Z,21.52
2022-12-18T20:39:27.609Z,23.38
2022-12-18T20:44:28.546Z,20.80
2022-12-18T20:47:00.295Z,21.52
2022-12-18T20:49:33.556Z,21.83
2022-12-18T20:52:03.937Z,23.10
2022-12-18T20:54:33.787Z,24.50
2022-12-18T20:57:04.612Z,22.73
2022-12-18T20:59:34.286Z,28.07
2022-12-18T21:02:03.649Z,20.58
2022-12-18T21:04:33.337Z,25.02
2022-12-18T21:07:03.086Z,26.77
2022-12-18T21:09:37.549Z,20.97
2022-12-18T21:12:40.274Z,24.90
2022-12-18T21:15:18.252Z,23.03
2022-12-18T21:17:47.696Z,26.63
2022-12-18T21:20:18.544Z,24.83
2022-12-18T21:22:50.351Z,22.63
2022-12-18T21:25:19.964Z,23.25
2022-12-18T21:27:50.713Z,24.88
2022-12-18T21:30:20.567Z,23.90
2022-12-18T21:32:50.071Z,24.13
2022-12-18T21:35:20.003Z,22.63
2022-12-18T21:37:51.434Z,22.23
2022-12-18T21:40:20.935Z,26.00
2022-12-18T21:43:09.003Z,21.13
2022-12-18T21:45:38.759Z,22.60
2022-12-18T21:48:08.141Z,20.77
2022-12-18T21:50:37.697Z,23.08
2022-12-18T21:53:07.058Z,24.30
2022-12-18T21:55:36.662Z,21.10
2022-12-18T21:58:09.596Z,22.80
2022-12-18T22:00:39.106Z,26.97
2022-12-18T22:03:18.821Z,22.37
2022-12-18T22:05:50.598Z,21.40
2022-12-18T22:08:31.539Z,27.87
2022-12-18T22:11:01.122Z,25.40
2022-12-18T22:13:31.680Z,29.27
2022-12-18T22:16:01.139Z,26.50
2022-12-18T22:18:30.373Z,27.73
2022-12-18T22:21:03.286Z,27.88
2022-12-18T22:23:33.177Z,23.67
2022-12-18T22:26:02.586Z,24.88
2022-12-18T22:28:51.581Z,24.73
2022-12-18T22:31:21.120Z,26.27
2022-12-18T22:33:51.163Z,22.90
2022-12-18T22:36:20.711Z,26.77
2022-12-18T22:38:51.597Z,24.67
2022-12-18T22:41:23.280Z,22.83
2022-12-18T22:43:53.766Z,22.77
2022-12-18T22:46:25.139Z,22.73
2022-12-18T22:48:54.669Z,23.90
2022-12-18T22:51:24.098Z,23.08
2022-12-18T22:53:53.378Z,26.40
2022-12-18T22:56:24.783Z,22.50
2022-12-18T22:58:55.292Z,20.35
2022-12-18T23:01:27.485Z,23.87
2022-12-18T23:03:56.838Z,23.33
2022-12-18T23:06:28.127Z,24.23
2022-12-18T23:08:58.711Z,23.40
2022-12-18T23:11:28.555Z,25.13
2022-12-18T23:13:59.178Z,23.60
2022-12-18T23:16:29.428Z,26.33
2022-12-18T23:18:58.809Z,20.80
2022-12-18T23:21:28.425Z,26.42
2022-12-18T23:26:28.038Z,17.27
2022-12-18T23:28:58.974Z,27.70
2022-12-18T23:31:30.897Z,18.27
2022-12-18T23:34:01.894Z,21.13
2022-12-18T23:36:33.987Z,27.93
2022-12-18T23:39:28.886Z,24.63
2022-12-18T23:42:00.350Z,23.53
2022-12-18T23:44:31.414Z,28.65
2022-12-18T23:47:00.984Z,26.43
2022-12-18T23:49:30.134Z,27.50
2022-12-18T23:52:00.144Z,20.65
2022-12-18T23:54:33.557Z,23.45
2022-12-18T23:57:03.717Z,27.07
2022-12-18T23:59:34.216Z,28.77
